Time,TemperatureF,DewpointF,PressureIn,WindDirection,WindDirectionDegrees,WindSpeedMPH,WindSpeedGustMPH,Humidity,HourlyPrecipIn,Conditions,Clouds,dailyrainin,SoftwareType,DateUTC
2013-08-13 00:00:00,72.1,70.6,29.97,WSW,248,0.0,0.0,95,0.00,,---,0.21,VWS V14.01,2013-08-13 04:00:00,
2013-08-13 00:01:00,72.1,70.6,29.97,WSW,248,0.0,0.0,95,0.00,,---,0.00,VWS V14.01,2013-08-13 04:01:00,
2013-08-13 00:06:00,71.9,70.4,29.97,WSW,248,0.0,0.0,95,0.00,,---,0.00,VWS V14.01,2013-08-13 04:06:00,
2013-08-13 00:10:00,71.9,70.7,29.97,WSW,248,0.0,0.0,96,0.00,,---,0.00,VWS V14.01,2013-08-13 04:10:00,
2013-08-13 00:11:00,72.0,70.8,29.97,WSW,247,0.0,0.0,96,0.00,,---,0.00,VWS V14.01,2013-08-13 04:11:00,
2013-08-13 00:16:00,72.3,71.1,29.97,WSW,248,0.0,0.0,96,0.00,,---,0.00,VWS V14.01,2013-08-13 04:16:00,
2013-08-13 00:20:00,72.5,71.0,29.97,WSW,247,0.0,0.0,95,0.00,,---,0.00,VWS V14.01,2013-08-13 04:20:00,
2013-08-13 00:21:00,72.5,71.0,29.97,WSW,248,0.0,0.0,95,0.00,,---,0.00,VWS V14.01,2013-08-13 04:21:00,
2013-08-13 00:26:00,72.4,70.9,29.97,WSW,248,0.0,0.0,95,0.00,,---,0.00,VWS V14.01,2013-08-13 04:26:00,
2013-08-13 00:30:00,72.3,70.8,29.97,WSW,248,0.0,0.0,95,0.00,,---,0.00,VWS V14.01,2013-08-13 04:30:00,
2013-08-13 00:31:00,72.2,70.7,29.97,WSW,248,0.0,0.0,95,0.00,,---,0.00,VWS V14.01,2013-08-13 04:31:00,
2013-08-13 00:36:00,72.1,70.6,29.97,WSW,248,0.0,0.0,95,0.00,,---,0.00,VWS V14.01,2013-08-13 04:36:00,
2013-08-13 00:40:00,72.1,70.9,29.97,WSW,248,0.0,0.0,96,0.00,,---,0.00,VWS V14.01,2013-08-13 04:40:00,
2013-08-13 00:41:00,72.0,70.8,29.97,WSW,248,0.0,0.0,96,0.00,,---,0.00,VWS V14.01,2013-08-13 04:41:00,
2013-08-13 00:46:00,71.9,70.4,29.97,WSW,248,0.0,0.0,95,0.00,,---,0.00,VWS V14.01,2013-08-13 04:46:00,
2013-08-13 00:50:00,71.8,70.6,29.97,WSW,248,0.0,0.0,96,0.00,,---,0.00,VWS V14.01,2013-08-13 04:50:00,
2013-08-13 00:51:00,71.8,70.6,29.96,WSW,248,0.0,0.0,96,0.00,,---,0.00,VWS V14.01,2013-08-13 04:51:00,
2013-08-13 00:56:00,71.8,70.6,29.96,WSW,248,0.0,0.0,96,0.00,,---,0.00,VWS V14.01,2013-08-13 04:56:00,
2013-08-13 01:00:00,71.7,70.5,29.96,WSW,247,0.0,0.0,96,0.00,,---,0.00,VWS V14.01,2013-08-13 05:00:00,
2013-08-13 01:01:00,71.7,70.5,29.96,WSW,248,0.0,0.0,96,0.00,,---,0.00,VWS V14.01,2013-08-13 05:01:00,
2013-08-13 01:06:00,71.7,70.5,29.96,WSW,248,0.0,0.0,96,0.00,,---,0.00,VWS V14.01,2013-08-13 05:06:00,
2013-08-13 01:10:00,71.9,71.0,29.96,WSW,248,0.0,0.0,97,0.00,,---,0.00,VWS V14.01,2013-08-13 05:10:00,
2013-08-13 01:11:00,72.0,71.1,29.96,WSW,247,0.0,0.0,97,0.00,,---,0.00,VWS V14.01,2013-08-13 05:11:00,
2013-08-13 01:16:00,72.6,71.4,29.96,WSW,248,0.0,1.0,96,0.00,,---,0.00,VWS V14.01,2013-08-13 05:16:00,
2013-08-13 01:20:00,72.8,71.3,29.96,WSW,248,0.0,1.0,95,0.00,,---,0.00,VWS V14.01,2013-08-13 05:20:00,
2013-08-13 01:21:00,72.8,71.3,29.96,WSW,247,0.0,0.0,95,0.00,,---,0.00,VWS V14.01,2013-08-13 05:21:00,
2013-08-13 01:26:00,72.5,70.7,29.95,WSW,248,0.0,0.0,94,0.00,,---,0.00,VWS V14.01,2013-08-13 05:26:00,
2013-08-13 01:30:00,72.3,70.8,29.95,WSW,248,0.0,0.0,95,0.00,,---,0.00,VWS V14.01,2013-08-13 05:30:00,
2013-08-13 01:31:00,72.3,70.8,29.95,WSW,248,0.0,0.0,95,0.00,,---,0.00,VWS V14.01,2013-08-13 05:31:00,
2013-08-13 01:36:00,72.1,70.6,29.95,WSW,248,0.0,0.0,95,0.00,,---,0.00,VWS V14.01,2013-08-13 05:36:00,
2013-08-13 01:40:00,72.0,70.5,29.95,WSW,247,0.0,0.0,95,0.00,,---,0.00,VWS V14.01,2013-08-13 05:40:00,
2013-08-13 01:41:00,72.0,70.5,29.95,WSW,248,0.0,0.0,95,0.00,,---,0.00,VWS V14.01,2013-08-13 05:41:00,
2013-08-13 01:46:00,71.9,70.7,29.95,WSW,248,0.0,0.0,96,0.00,,---,0.00,VWS V14.01,2013-08-13 05:46:00,
2013-08-13 01:50:00,71.9,70.7,29.95,WSW,248,0.0,0.0,96,0.00,,---,0.00,VWS V14.01,2013-08-13 05:50:00,
2013-08-13 01:51:00,71.9,70.7,29.95,WSW,248,0.0,0.0,96,0.00,,---,0.00,VWS V14.01,2013-08-13 05:51:00,
2013-08-13 01:56:00,71.8,70.6,29.95,WSW,248,0.0,0.0,96,0.00,,---,0.00,VWS V14.01,2013-08-13 05:56:00,
2013-08-13 02:00:00,71.8,70.6,29.95,WSW,248,0.0,0.0,96,0.00,,---,0.00,VWS V14.01,2013-08-13 06:00:00,
2013-08-13 02:01:00,71.8,70.6,29.94,WSW,247,0.0,0.0,96,0.00,,---,0.00,VWS V14.01,2013-08-13 06:01:00,
2013-08-13 02:06:00,71.8,70.6,29.94,WSW,248,0.0,0.0,96,0.00,,---,0.00,VWS V14.01,2013-08-13 06:06:00,
2013-08-13 02:10:00,71.8,70.6,29.93,WSW,248,0.0,0.0,96,0.00,,---,0.00,VWS V14.01,2013-08-13 06:10:00,
2013-08-13 02:11:00,71.8,70.9,29.93,WSW,248,0.0,0.0,97,0.00,,---,0.00,VWS V14.01,2013-08-13 06:11:00,
2013-08-13 02:16:00,71.8,70.9,29.93,WSW,247,0.0,0.0,97,0.00,,---,0.00,VWS V14.01,2013-08-13 06:16:00,
2013-08-13 02:20:00,71.8,70.9,29.93,WSW,248,0.0,0.0,97,0.00,,---,0.00,VWS V14.01,2013-08-13 06:20:00,
2013-08-13 02:21:00,71.8,70.9,29.93,WSW,247,0.0,0.0,97,0.00,,---,0.00,VWS V14.01,2013-08-13 06:21:00,
2013-08-13 02:26:00,71.8,70.9,29.93,WSW,248,0.0,0.0,97,0.00,,---,0.00,VWS V14.01,2013-08-13 06:26:00,
2013-08-13 02:30:00,71.8,70.9,29.93,WSW,247,0.0,0.0,97,0.00,,---,0.00,VWS V14.01,2013-08-13 06:30:00,
2013-08-13 02:31:00,71.7,70.8,29.93,WSW,248,0.0,0.0,97,0.00,,---,0.00,VWS V14.01,2013-08-13 06:31:00,
2013-08-13 02:36:00,71.7,70.8,29.92,WSW,248,0.0,0.0,97,0.00,,---,0.00,VWS V14.01,2013-08-13 06:36:00,
2013-08-13 02:40:00,71.7,70.8,29.92,WSW,248,0.0,0.0,97,0.00,,---,0.00,VWS V14.01,2013-08-13 06:40:00,
2013-08-13 02:41:00,71.7,70.8,29.92,WSW,247,0.0,0.0,97,0.00,,---,0.00,VWS V14.01,2013-08-13 06:41:00,
2013-08-13 02:46:00,71.8,70.9,29.92,WSW,248,0.0,0.0,97,0.00,,---,0.00,VWS V14.01,2013-08-13 06:46:00,
2013-08-13 02:50:00,72.3,71.4,29.92,WSW,248,0.0,0.0,97,0.00,,---,0.00,VWS V14.01,2013-08-13 06:50:00,
2013-08-13 02:55:00,72.4,71.2,29.92,WSW,248,0.0,0.0,96,0.00,,---,0.00,VWS V14.01,2013-08-13 06:55:00,
2013-08-13 03:00:00,72.4,71.2,29.92,WSW,248,0.0,0.0,96,0.00,,---,0.00,VWS V14.01,2013-08-13 07:00:00,
2013-08-13 03:01:00,72.3,71.1,29.91,WSW,248,0.0,0.0,96,0.00,,---,0.00,VWS V14.01,2013-08-13 07:01:00,
2013-08-13 03:06:00,72.2,71.0,29.91,WSW,248,0.0,0.0,96,0.00,,---,0.00,VWS V14.01,2013-08-13 07:06:00,
2013-08-13 03:10:00,72.0,70.8,29.91,WSW,248,0.0,0.0,96,0.00,,---,0.00,VWS V14.01,2013-08-13 07:10:00,
2013-08-13 03:15:00,71.9,70.7,29.91,WSW,248,0.0,0.0,96,0.00,,---,0.00,VWS V14.01,2013-08-13 07:15:00,
2013-08-13 03:20:00,71.8,70.6,29.91,WSW,248,0.0,0.0,96,0.00,,---,0.00,VWS V14.01,2013-08-13 07:20:00,
2013-08-13 03:25:00,71.7,70.5,29.90,WSW,248,0.0,0.0,96,0.00,,---,0.00,VWS V14.01,2013-08-13 07:25:00,
2013-08-13 03:30:00,71.6,70.4,29.91,WSW,248,0.0,0.0,96,0.00,,---,0.00,VWS V14.01,2013-08-13 07:30:00,
2013-08-13 03:35:00,71.5,70.3,29.90,WSW,248,0.0,0.0,96,0.00,,---,0.00,VWS V14.01,2013-08-13 07:35:00,
2013-08-13 03:40:00,71.4,70.2,29.90,WSW,248,0.0,0.0,96,0.00,,---,0.00,VWS V14.01,2013-08-13 07:40:00,
2013-08-13 03:45:00,71.4,70.5,29.90,WSW,248,0.0,0.0,97,0.00,,---,0.00,VWS V14.01,2013-08-13 07:45:00,
2013-08-13 03:50:00,71.3,70.4,29.90,WSW,248,0.0,0.0,97,0.00,,---,0.00,VWS V14.01,2013-08-13 07:50:00,
2013-08-13 03:55:00,71.3,70.4,29.90,WSW,247,0.0,0.0,97,0.00,,---,0.00,VWS V14.01,2013-08-13 07:55:00,
2013-08-13 04:00:00,71.2,70.3,29.90,WSW,248,0.0,0.0,97,0.00,,---,0.00,VWS V14.01,2013-08-13 08:00:00,
2013-08-13 04:05:00,71.2,70.3,29.90,WSW,248,0.0,0.0,97,0.00,,---,0.00,VWS V14.01,2013-08-13 08:05:00,
2013-08-13 04:10:00,71.1,70.2,29.90,WSW,248,0.0,0.0,97,0.00,,---,0.00,VWS V14.01,2013-08-13 08:10:00,
2013-08-13 04:15:00,71.1,70.2,29.90,WSW,248,0.0,0.0,97,0.00,,---,0.00,VWS V14.01,2013-08-13 08:15:00,
2013-08-13 04:20:00,71.0,70.1,29.90,WSW,248,0.0,0.0,97,0.00,,---,0.00,VWS V14.01,2013-08-13 08:20:00,
2013-08-13 04:25:00,71.0,70.1,29.89,WSW,248,0.0,0.0,97,0.00,,---,0.00,VWS V14.01,2013-08-13 08:25:00,
2013-08-13 04:30:00,71.1,70.2,29.90,WSW,248,0.0,0.0,97,0.00,,---,0.00,VWS V14.01,2013-08-13 08:30:00,
2013-08-13 04:35:00,71.5,70.9,29.90,WSW,248,0.0,0.0,98,0.00,,---,0.00,VWS V14.01,2013-08-13 08:35:00,
2013-08-13 04:40:00,71.8,70.9,29.90,WSW,247,0.0,0.0,97,0.00,,---,0.00,VWS V14.01,2013-08-13 08:40:00,
2013-08-13 04:45:00,71.7,70.5,29.90,WSW,247,0.0,0.0,96,0.00,,---,0.00,VWS V14.01,2013-08-13 08:45:00,
2013-08-13 04:50:00,71.6,70.4,29.90,WSW,248,0.0,0.0,96,0.00,,---,0.00,VWS V14.01,2013-08-13 08:50:00,
2013-08-13 04:55:00,71.4,70.2,29.90,WSW,248,0.0,0.0,96,0.00,,---,0.00,VWS V14.01,2013-08-13 08:55:00,
2013-08-13 05:00:00,71.3,70.1,29.90,WSW,248,0.0,0.0,96,0.00,,---,0.00,VWS V14.01,2013-08-13 09:00:00,
2013-08-13 05:05:00,71.2,70.0,29.90,WSW,247,0.0,0.0,96,0.00,,---,0.00,VWS V14.01,2013-08-13 09:05:00,
2013-08-13 05:10:00,71.2,70.0,29.90,WSW,248,0.0,0.0,96,0.00,,---,0.00,VWS V14.01,2013-08-13 09:10:00,
2013-08-13 05:15:00,71.1,70.2,29.90,WSW,247,0.0,0.0,97,0.00,,---,0.00,VWS V14.01,2013-08-13 09:15:00,
2013-08-13 05:20:00,71.1,70.2,29.90,WSW,248,0.0,0.0,97,0.00,,---,0.00,VWS V14.01,2013-08-13 09:20:00,
2013-08-13 05:25:00,71.0,70.1,29.90,WSW,248,0.0,0.0,97,0.00,,---,0.00,VWS V14.01,2013-08-13 09:25:00,
2013-08-13 05:30:00,70.9,70.0,29.90,WSW,248,0.0,0.0,97,0.00,,---,0.00,VWS V14.01,2013-08-13 09:30:00,
2013-08-13 05:35:00,70.9,70.0,29.90,WSW,248,0.0,0.0,97,0.00,,---,0.00,VWS V14.01,2013-08-13 09:35:00,
2013-08-13 05:40:00,70.8,69.9,29.90,WSW,248,0.0,0.0,97,0.00,,---,0.00,VWS V14.01,2013-08-13 09:40:00,
2013-08-13 05:45:00,70.7,69.8,29.90,WSW,248,0.0,0.0,97,0.00,,---,0.00,VWS V14.01,2013-08-13 09:45:00,
2013-08-13 05:50:00,70.7,69.8,29.90,WSW,248,0.0,0.0,97,0.00,,---,0.00,VWS V14.01,2013-08-13 09:50:00,
2013-08-13 05:51:00,70.7,69.8,29.90,WSW,248,0.0,0.0,97,0.00,,---,0.00,VWS V14.01,2013-08-13 09:51:00,
2013-08-13 05:56:00,70.7,69.8,29.90,WSW,248,0.0,0.0,97,0.00,,---,0.00,VWS V14.01,2013-08-13 09:56:00,
2013-08-13 06:00:00,70.6,69.7,29.91,WSW,248,0.0,0.0,97,0.00,,---,0.00,VWS V14.01,2013-08-13 10:00:00,
2013-08-13 06:01:00,70.6,69.7,29.91,WSW,248,0.0,0.0,97,0.00,,---,0.00,VWS V14.01,2013-08-13 10:01:00,
2013-08-13 06:06:00,70.6,69.7,29.90,WSW,247,0.0,0.0,97,0.00,,---,0.00,VWS V14.01,2013-08-13 10:06:00,
2013-08-13 06:10:00,70.5,69.6,29.90,WSW,248,0.0,0.0,97,0.00,,---,0.00,VWS V14.01,2013-08-13 10:10:00,
2013-08-13 06:11:00,70.5,69.6,29.91,WSW,248,0.0,0.0,97,0.00,,---,0.00,VWS V14.01,2013-08-13 10:11:00,
2013-08-13 06:16:00,70.5,69.6,29.91,WSW,248,0.0,0.0,97,0.00,,---,0.00,VWS V14.01,2013-08-13 10:16:00,
2013-08-13 06:20:00,70.5,69.6,29.91,WSW,248,0.0,0.0,97,0.00,,---,0.00,VWS V14.01,2013-08-13 10:20:00,
2013-08-13 06:21:00,70.5,69.6,29.91,WSW,247,0.0,0.0,97,0.00,,---,0.00,VWS V14.01,2013-08-13 10:21:00,
2013-08-13 06:26:00,70.5,69.6,29.91,WSW,248,0.0,0.0,97,0.00,,---,0.00,VWS V14.01,2013-08-13 10:26:00,
2013-08-13 06:30:00,70.5,69.6,29.91,WSW,248,0.0,0.0,97,0.00,,---,0.00,VWS V14.01,2013-08-13 10:30:00,
2013-08-13 06:31:00,70.5,69.6,29.91,WSW,248,0.0,0.0,97,0.00,,---,0.00,VWS V14.01,2013-08-13 10:31:00,
2013-08-13 06:36:00,70.5,69.6,29.91,WSW,248,0.0,0.0,97,0.00,,---,0.00,VWS V14.01,2013-08-13 10:36:00,
2013-08-13 06:40:00,70.4,69.5,29.91,WSW,248,0.0,0.0,97,0.00,,---,0.00,VWS V14.01,2013-08-13 10:40:00,
2013-08-13 06:41:00,70.4,69.5,29.91,WSW,248,0.0,0.0,97,0.00,,---,0.00,VWS V14.01,2013-08-13 10:41:00,
2013-08-13 06:46:00,70.4,69.5,29.91,WSW,248,0.0,0.0,97,0.00,,---,0.00,VWS V14.01,2013-08-13 10:46:00,
2013-08-13 06:50:00,70.4,69.8,29.92,WSW,248,0.0,0.0,98,0.00,,---,0.00,VWS V14.01,2013-08-13 10:50:00,
2013-08-13 06:51:00,70.5,69.9,29.92,WSW,248,0.0,0.0,98,0.00,,---,0.00,VWS V14.01,2013-08-13 10:51:00,
2013-08-13 06:56:00,70.5,69.9,29.92,WSW,248,0.0,0.0,98,0.00,,---,0.00,VWS V14.01,2013-08-13 10:56:00,
2013-08-13 07:00:00,70.5,69.9,29.92,WSW,248,0.0,0.0,98,0.00,,---,0.00,VWS V14.01,2013-08-13 11:00:00,
2013-08-13 07:01:00,70.5,69.9,29.92,WSW,248,0.0,0.0,98,0.00,,---,0.00,VWS V14.01,2013-08-13 11:01:00,
2013-08-13 07:06:00,70.6,70.0,29.92,WSW,248,0.0,0.0,98,0.00,,---,0.00,VWS V14.01,2013-08-13 11:06:00,
2013-08-13 07:10:00,70.6,70.0,29.92,WSW,248,0.0,0.0,98,0.00,,---,0.00,VWS V14.01,2013-08-13 11:10:00,
2013-08-13 07:11:00,70.6,70.0,29.92,WSW,248,0.0,0.0,98,0.00,,---,0.00,VWS V14.01,2013-08-13 11:11:00,
2013-08-13 07:16:00,70.7,70.1,29.92,WSW,248,0.0,0.0,98,0.00,,---,0.00,VWS V14.01,2013-08-13 11:16:00,
2013-08-13 07:20:00,70.7,70.1,29.92,WSW,248,0.0,0.0,98,0.00,,---,0.00,VWS V14.01,2013-08-13 11:20:00,
2013-08-13 07:21:00,70.8,70.2,29.92,WSW,248,0.0,0.0,98,0.00,,---,0.00,VWS V14.01,2013-08-13 11:21:00,
2013-08-13 07:26:00,70.9,70.3,29.92,WSW,248,0.0,0.0,98,0.00,,---,0.00,VWS V14.01,2013-08-13 11:26:00,
2013-08-13 07:30:00,70.9,70.3,29.92,WSW,248,0.0,0.0,98,0.00,,---,0.00,VWS V14.01,2013-08-13 11:30:00,
2013-08-13 07:31:00,70.9,70.3,29.92,WSW,248,0.0,0.0,98,0.00,,---,0.00,VWS V14.01,2013-08-13 11:31:00,
2013-08-13 07:36:00,71.0,70.4,29.92,WSW,248,0.0,0.0,98,0.00,,---,0.00,VWS V14.01,2013-08-13 11:36:00,
2013-08-13 07:40:00,71.1,70.5,29.93,WSW,248,0.0,0.0,98,0.00,,---,0.00,VWS V14.01,2013-08-13 11:40:00,
2013-08-13 07:41:00,71.2,70.6,29.93,WSW,248,0.0,0.0,98,0.00,,---,0.00,VWS V14.01,2013-08-13 11:41:00,
2013-08-13 07:46:00,71.3,70.7,29.93,WSW,248,0.0,0.0,98,0.00,,---,0.00,VWS V14.01,2013-08-13 11:46:00,
2013-08-13 07:50:00,71.3,70.7,29.93,WSW,247,0.0,0.0,98,0.00,,---,0.00,VWS V14.01,2013-08-13 11:50:00,
2013-08-13 07:51:00,71.4,70.8,29.92,WSW,248,0.0,0.0,98,0.00,,---,0.00,VWS V14.01,2013-08-13 11:51:00,
2013-08-13 07:56:00,71.5,70.9,29.92,WSW,248,0.0,0.0,98,0.01,,---,0.01,VWS V14.01,2013-08-13 11:56:00,
2013-08-13 08:00:00,71.6,71.0,29.92,WSW,247,0.0,0.0,98,0.01,,---,0.01,VWS V14.01,2013-08-13 12:00:00,
2013-08-13 08:01:00,71.6,71.0,29.92,WSW,248,0.0,0.0,98,0.01,,---,0.01,VWS V14.01,2013-08-13 12:01:00,
2013-08-13 08:06:00,71.8,71.2,29.92,WSW,248,0.0,0.0,98,0.01,,---,0.01,VWS V14.01,2013-08-13 12:06:00,
2013-08-13 08:10:00,71.8,71.2,29.92,WSW,247,0.0,0.0,98,0.01,,---,0.01,VWS V14.01,2013-08-13 12:10:00,
2013-08-13 08:11:00,71.9,71.3,29.92,WSW,248,0.0,0.0,98,0.01,,---,0.01,VWS V14.01,2013-08-13 12:11:00,
2013-08-13 08:16:00,72.0,71.4,29.92,WSW,248,0.0,0.0,98,0.01,,---,0.01,VWS V14.01,2013-08-13 12:16:00,
2013-08-13 08:20:00,72.0,71.4,29.93,WSW,247,0.0,0.0,98,0.01,,---,0.01,VWS V14.01,2013-08-13 12:20:00,
2013-08-13 08:21:00,72.0,71.4,29.93,WSW,247,0.0,0.0,98,0.01,,---,0.01,VWS V14.01,2013-08-13 12:21:00,
2013-08-13 08:26:00,72.2,71.6,29.93,WSW,248,0.0,0.0,98,0.01,,---,0.01,VWS V14.01,2013-08-13 12:26:00,
2013-08-13 08:30:00,72.2,71.6,29.93,WSW,248,0.0,0.0,98,0.01,,---,0.01,VWS V14.01,2013-08-13 12:30:00,
2013-08-13 08:31:00,72.2,71.6,29.93,WSW,247,0.0,0.0,98,0.01,,---,0.01,VWS V14.01,2013-08-13 12:31:00,
2013-08-13 08:36:00,72.3,71.7,29.92,WSW,248,0.0,0.0,98,0.01,,---,0.01,VWS V14.01,2013-08-13 12:36:00,
2013-08-13 08:40:00,72.4,71.8,29.92,WSW,248,0.0,0.0,98,0.01,,---,0.01,VWS V14.01,2013-08-13 12:40:00,
2013-08-13 08:41:00,72.4,71.8,29.92,WSW,248,0.0,0.0,98,0.01,,---,0.01,VWS V14.01,2013-08-13 12:41:00,
2013-08-13 08:46:00,72.6,72.0,29.92,WSW,248,0.0,0.0,98,0.01,,---,0.01,VWS V14.01,2013-08-13 12:46:00,
2013-08-13 08:50:00,72.7,72.1,29.92,WSW,249,0.0,0.0,98,0.01,,---,0.01,VWS V14.01,2013-08-13 12:50:00,
2013-08-13 08:51:00,72.7,72.1,29.92,WSW,248,0.0,0.0,98,0.01,,---,0.01,VWS V14.01,2013-08-13 12:51:00,
2013-08-13 08:56:00,72.9,72.3,29.92,WSW,249,0.0,0.0,98,0.01,,---,0.01,VWS V14.01,2013-08-13 12:56:00,
2013-08-13 09:00:00,72.9,72.3,29.93,WSW,248,0.0,0.0,98,0.01,,---,0.01,VWS V14.01,2013-08-13 13:00:00,
2013-08-13 09:01:00,73.0,72.4,29.93,WSW,249,0.0,0.0,98,0.00,,---,0.01,VWS V14.01,2013-08-13 13:01:00,
2013-08-13 09:06:00,73.1,72.5,29.93,WSW,248,0.0,0.0,98,0.00,,---,0.01,VWS V14.01,2013-08-13 13:06:00,
2013-08-13 09:10:00,73.2,72.6,29.93,WSW,249,0.0,0.0,98,0.00,,---,0.01,VWS V14.01,2013-08-13 13:10:00,
2013-08-13 09:11:00,73.2,72.6,29.93,WSW,249,0.0,0.0,98,0.00,,---,0.01,VWS V14.01,2013-08-13 13:11:00,
2013-08-13 09:16:00,73.3,72.7,29.94,WSW,249,0.0,0.0,98,0.00,,---,0.01,VWS V14.01,2013-08-13 13:16:00,
2013-08-13 09:20:00,73.3,72.7,29.93,WSW,249,0.0,0.0,98,0.00,,---,0.01,VWS V14.01,2013-08-13 13:20:00,
2013-08-13 09:21:00,73.3,72.7,29.93,WSW,249,0.0,0.0,98,0.00,,---,0.01,VWS V14.01,2013-08-13 13:21:00,
2013-08-13 09:26:00,73.3,72.7,29.93,WSW,249,0.0,0.0,98,0.00,,---,0.01,VWS V14.01,2013-08-13 13:26:00,
2013-08-13 09:30:00,73.3,72.7,29.93,WSW,248,0.0,0.0,98,0.00,,---,0.01,VWS V14.01,2013-08-13 13:30:00,
2013-08-13 09:31:00,73.3,72.7,29.93,WSW,248,0.0,0.0,98,0.00,,---,0.01,VWS V14.01,2013-08-13 13:31:00,
2013-08-13 09:36:00,73.3,72.4,29.93,WSW,249,0.0,0.0,97,0.00,,---,0.01,VWS V14.01,2013-08-13 13:36:00,
2013-08-13 09:40:00,73.4,72.8,29.93,WSW,249,0.0,0.0,98,0.00,,---,0.01,VWS V14.01,2013-08-13 13:40:00,
2013-08-13 09:41:00,73.4,72.8,29.93,WSW,249,0.0,0.0,98,0.00,,---,0.01,VWS V14.01,2013-08-13 13:41:00,
2013-08-13 09:46:00,73.5,72.6,29.93,WSW,257,0.0,1.0,97,0.00,,---,0.01,VWS V14.01,2013-08-13 13:46:00,
2013-08-13 09:50:00,73.4,72.5,29.93,WSW,257,0.0,1.0,97,0.00,,---,0.01,VWS V14.01,2013-08-13 13:50:00,
2013-08-13 09:51:00,73.4,72.5,29.93,WSW,257,0.0,0.0,97,0.00,,---,0.01,VWS V14.01,2013-08-13 13:51:00,
2013-08-13 09:56:00,73.5,72.6,29.92,West,259,0.0,1.0,97,0.00,,---,0.01,VWS V14.01,2013-08-13 13:56:00,
2013-08-13 10:00:00,73.5,72.6,29.92,West,259,0.0,1.0,97,0.00,,---,0.01,VWS V14.01,2013-08-13 14:00:00,
2013-08-13 10:01:00,73.6,72.7,29.92,WSW,253,0.0,0.0,97,0.00,,---,0.01,VWS V14.01,2013-08-13 14:01:00,
2013-08-13 10:06:00,73.8,72.9,29.92,WSW,255,0.0,0.0,97,0.00,,---,0.01,VWS V14.01,2013-08-13 14:06:00,
2013-08-13 10:10:00,73.8,72.6,29.93,WSW,239,0.0,1.0,96,0.00,,---,0.01,VWS V14.01,2013-08-13 14:10:00,
2013-08-13 10:11:00,73.8,72.6,29.92,WSW,239,0.0,0.0,96,0.00,,---,0.01,VWS V14.01,2013-08-13 14:11:00,
2013-08-13 10:16:00,73.9,72.7,29.92,WSW,238,0.0,0.0,96,0.00,,---,0.01,VWS V14.01,2013-08-13 14:16:00,
2013-08-13 10:20:00,73.9,72.7,29.93,WSW,238,0.0,0.0,96,0.00,,---,0.01,VWS V14.01,2013-08-13 14:20:00,
2013-08-13 10:21:00,73.9,72.7,29.92,WSW,238,0.0,0.0,96,0.00,,---,0.01,VWS V14.01,2013-08-13 14:21:00,
2013-08-13 10:26:00,73.9,72.7,29.93,WSW,239,0.0,0.0,96,0.00,,---,0.01,VWS V14.01,2013-08-13 14:26:00,
2013-08-13 10:30:00,74.0,72.8,29.93,WSW,238,0.0,0.0,96,0.00,,---,0.01,VWS V14.01,2013-08-13 14:30:00,
2013-08-13 10:31:00,74.0,72.8,29.93,WSW,239,0.0,0.0,96,0.00,,---,0.01,VWS V14.01,2013-08-13 14:31:00,
2013-08-13 10:36:00,74.0,72.8,29.93,WSW,239,0.0,0.0,96,0.00,,---,0.01,VWS V14.01,2013-08-13 14:36:00,
2013-08-13 10:40:00,74.0,72.8,29.93,WSW,238,0.0,0.0,96,0.00,,---,0.01,VWS V14.01,2013-08-13 14:40:00,
2013-08-13 10:41:00,74.0,72.8,29.93,WSW,238,0.0,0.0,96,0.00,,---,0.01,VWS V14.01,2013-08-13 14:41:00,
2013-08-13 10:46:00,74.0,72.8,29.93,WSW,238,0.0,0.0,96,0.00,,---,0.01,VWS V14.01,2013-08-13 14:46:00,
2013-08-13 10:50:00,74.0,72.8,29.93,WSW,238,0.0,0.0,96,0.00,,---,0.01,VWS V14.01,2013-08-13 14:50:00,
2013-08-13 10:51:00,74.0,72.8,29.93,WSW,238,0.0,0.0,96,0.00,,---,0.01,VWS V14.01,2013-08-13 14:51:00,
2013-08-13 10:56:00,74.0,72.5,29.93,WSW,239,0.0,0.0,95,0.00,,---,0.01,VWS V14.01,2013-08-13 14:56:00,
2013-08-13 11:00:00,74.0,72.5,29.94,WSW,238,0.0,0.0,95,0.00,,---,0.01,VWS V14.01,2013-08-13 15:00:00,
2013-08-13 11:01:00,74.0,72.5,29.94,WSW,238,0.0,0.0,95,0.00,,---,0.01,VWS V14.01,2013-08-13 15:01:00,
2013-08-13 11:06:00,74.0,72.5,29.94,WSW,238,0.0,0.0,95,0.00,,---,0.01,VWS V14.01,2013-08-13 15:06:00,
2013-08-13 11:10:00,74.0,72.5,29.94,WSW,248,0.0,1.0,95,0.00,,---,0.01,VWS V14.01,2013-08-13 15:10:00,
2013-08-13 11:11:00,74.0,72.5,29.94,WSW,248,0.0,0.0,95,0.00,,---,0.01,VWS V14.01,2013-08-13 15:11:00,
2013-08-13 11:16:00,74.0,72.5,29.94,WSW,249,0.0,0.0,95,0.00,,---,0.01,VWS V14.01,2013-08-13 15:16:00,
2013-08-13 11:20:00,74.2,73.0,29.94,WSW,247,0.0,0.0,96,0.00,,---,0.01,VWS V14.01,2013-08-13 15:20:00,
2013-08-13 11:21:00,74.2,73.0,29.94,WSW,247,0.0,0.0,96,0.00,,---,0.01,VWS V14.01,2013-08-13 15:21:00,
2013-08-13 11:26:00,74.5,73.0,29.94,WSW,249,0.0,0.0,95,0.00,,---,0.01,VWS V14.01,2013-08-13 15:26:00,
2013-08-13 11:30:00,74.7,73.2,29.94,WSW,248,0.0,0.0,95,0.00,,---,0.01,VWS V14.01,2013-08-13 15:30:00,
2013-08-13 11:31:00,74.8,73.6,29.94,WSW,249,0.0,0.0,96,0.00,,---,0.01,VWS V14.01,2013-08-13 15:31:00,
2013-08-13 11:36:00,75.0,73.5,29.94,WSW,249,0.0,0.0,95,0.00,,---,0.01,VWS V14.01,2013-08-13 15:36:00,
2013-08-13 11:40:00,75.2,73.7,29.94,SSW,201,0.0,0.0,95,0.00,,---,0.01,VWS V14.01,2013-08-13 15:40:00,
2013-08-13 11:41:00,75.2,73.4,29.94,SSW,202,0.0,0.0,94,0.00,,---,0.01,VWS V14.01,2013-08-13 15:41:00,
2013-08-13 11:46:00,75.4,73.2,29.94,SSW,201,0.0,0.0,93,0.00,,---,0.01,VWS V14.01,2013-08-13 15:46:00,
2013-08-13 11:50:00,75.6,73.8,29.94,SSW,201,0.0,0.0,94,0.00,,---,0.01,VWS V14.01,2013-08-13 15:50:00,
2013-08-13 11:51:00,75.6,73.4,29.94,SSW,201,0.0,0.0,93,0.00,,---,0.01,VWS V14.01,2013-08-13 15:51:00,
2013-08-13 11:56:00,75.7,73.5,29.94,SSW,202,0.0,0.0,93,0.00,,---,0.01,VWS V14.01,2013-08-13 15:56:00,
2013-08-13 12:00:00,75.8,73.3,29.94,SW,214,0.0,0.0,92,0.00,,---,0.01,VWS V14.01,2013-08-13 16:00:00,
2013-08-13 12:01:00,75.8,73.3,29.94,SW,214,0.0,0.0,92,0.00,,---,0.01,VWS V14.01,2013-08-13 16:01:00,
2013-08-13 12:06:00,75.9,73.4,29.94,SW,215,0.0,1.0,92,0.00,,---,0.01,VWS V14.01,2013-08-13 16:06:00,
2013-08-13 12:10:00,76.2,73.7,29.94,SW,217,0.0,1.0,92,0.00,,---,0.01,VWS V14.01,2013-08-13 16:10:00,
2013-08-13 12:11:00,76.3,73.8,29.94,SW,217,0.0,0.0,92,0.00,,---,0.01,VWS V14.01,2013-08-13 16:11:00,
2013-08-13 12:16:00,76.3,73.5,29.94,SW,217,0.0,0.0,91,0.00,,---,0.01,VWS V14.01,2013-08-13 16:16:00,
2013-08-13 12:20:00,76.2,73.4,29.93,WSW,242,0.0,0.0,91,0.00,,---,0.01,VWS V14.01,2013-08-13 16:20:00,
2013-08-13 12:21:00,76.1,73.3,29.93,WSW,242,0.0,0.0,91,0.00,,---,0.01,VWS V14.01,2013-08-13 16:21:00,
2013-08-13 12:26:00,76.1,73.6,29.93,South,172,0.0,0.0,92,0.00,,---,0.01,VWS V14.01,2013-08-13 16:26:00,
2013-08-13 12:30:00,75.8,72.7,29.93,West,277,0.0,1.0,90,0.00,,---,0.01,VWS V14.01,2013-08-13 16:30:00,
2013-08-13 12:31:00,75.9,73.1,29.93,West,277,0.0,0.0,91,0.00,,---,0.01,VWS V14.01,2013-08-13 16:31:00,
2013-08-13 12:36:00,75.9,73.1,29.93,West,278,0.0,0.0,91,0.00,,---,0.01,VWS V14.01,2013-08-13 16:36:00,
2013-08-13 12:40:00,76.1,73.6,29.93,West,278,0.0,0.0,92,0.00,,---,0.01,VWS V14.01,2013-08-13 16:40:00,
2013-08-13 12:41:00,76.2,73.7,29.92,West,278,0.0,0.0,92,0.00,,---,0.01,VWS V14.01,2013-08-13 16:41:00,
2013-08-13 12:46:00,76.9,74.4,29.92,West,278,0.0,0.0,92,0.00,,---,0.01,VWS V14.01,2013-08-13 16:46:00,
2013-08-13 12:50:00,77.7,74.5,29.92,West,271,0.0,0.0,90,0.00,,---,0.01,VWS V14.01,2013-08-13 16:50:00,
2013-08-13 12:51:00,78.0,74.8,29.92,WNW,283,0.0,1.0,90,0.00,,---,0.01,VWS V14.01,2013-08-13 16:51:00,
2013-08-13 12:56:00,79.4,75.2,29.92,NE,37,0.0,1.0,87,0.00,,---,0.01,VWS V14.01,2013-08-13 16:56:00,
2013-08-13 13:00:00,79.9,75.3,29.92,NE,37,0.0,1.0,86,0.00,,---,0.01,VWS V14.01,2013-08-13 17:00:00,
2013-08-13 13:01:00,80.1,75.5,29.92,NE,37,0.0,0.0,86,0.00,,---,0.01,VWS V14.01,2013-08-13 17:01:00,
2013-08-13 13:06:00,80.6,75.7,29.92,NE,37,0.0,0.0,85,0.00,,---,0.01,VWS V14.01,2013-08-13 17:06:00,
2013-08-13 13:10:00,80.8,75.2,29.92,NE,37,0.0,0.0,83,0.00,,---,0.01,VWS V14.01,2013-08-13 17:10:00,
2013-08-13 13:12:00,80.8,74.8,29.92,North,1,0.0,1.0,82,0.00,,---,0.01,VWS V14.01,2013-08-13 17:12:00,
2013-08-13 13:17:00,80.9,74.9,29.92,North,1,0.0,1.0,82,0.00,,---,0.01,VWS V14.01,2013-08-13 17:17:00,
2013-08-13 13:20:00,80.9,75.3,29.92,North,4,0.0,1.0,83,0.00,,---,0.01,VWS V14.01,2013-08-13 17:20:00,
2013-08-13 13:22:00,80.9,74.9,29.92,North,1,0.0,0.0,82,0.00,,---,0.01,VWS V14.01,2013-08-13 17:22:00,
2013-08-13 13:27:00,81.2,75.6,29.91,North,1,0.0,1.0,83,0.00,,---,0.01,VWS V14.01,2013-08-13 17:27:00,
2013-08-13 13:30:00,81.6,76.3,29.91,North,3,0.0,1.0,84,0.00,,---,0.01,VWS V14.01,2013-08-13 17:30:00,
2013-08-13 13:32:00,81.9,75.5,29.92,NNE,13,0.0,0.0,81,0.00,,---,0.01,VWS V14.01,2013-08-13 17:32:00,
2013-08-13 13:37:00,82.3,75.5,29.91,NNE,13,0.0,0.0,80,0.00,,---,0.01,VWS V14.01,2013-08-13 17:37:00,
2013-08-13 13:40:00,82.3,75.5,29.91,NNE,13,0.0,0.0,80,0.00,,---,0.01,VWS V14.01,2013-08-13 17:40:00,
2013-08-13 13:42:00,82.3,75.5,29.91,NNE,13,0.0,0.0,80,0.00,,---,0.01,VWS V14.01,2013-08-13 17:42:00,
2013-08-13 13:43:00,82.3,75.5,29.91,NNE,13,0.0,0.0,80,0.00,,---,0.01,VWS V14.01,2013-08-13 17:43:00,
2013-08-13 13:48:00,82.3,75.9,29.91,NNE,22,0.0,0.0,81,0.00,,---,0.01,VWS V14.01,2013-08-13 17:48:00,
2013-08-13 13:50:00,82.4,76.0,29.91,NNE,22,0.0,0.0,81,0.00,,---,0.01,VWS V14.01,2013-08-13 17:50:00,
2013-08-13 13:53:00,82.3,75.5,29.91,NNE,19,0.0,0.0,80,0.00,,---,0.01,VWS V14.01,2013-08-13 17:53:00,
2013-08-13 13:58:00,82.4,76.0,29.91,NE,43,0.0,1.0,81,0.00,,---,0.01,VWS V14.01,2013-08-13 17:58:00,
2013-08-13 14:00:00,82.5,75.3,29.90,NE,43,0.0,1.0,79,0.00,,---,0.01,VWS V14.01,2013-08-13 18:00:00,
2013-08-13 14:03:00,82.7,75.9,29.90,NE,43,0.0,0.0,80,0.00,,---,0.01,VWS V14.01,2013-08-13 18:03:00,
2013-08-13 14:08:00,83.2,75.2,29.90,NE,43,0.0,1.0,77,0.00,,---,0.01,VWS V14.01,2013-08-13 18:08:00,
2013-08-13 14:10:00,83.3,75.7,29.90,NE,42,0.0,1.0,78,0.00,,---,0.01,VWS V14.01,2013-08-13 18:10:00,
2013-08-13 14:13:00,83.4,75.8,29.90,NE,43,0.0,0.0,78,0.00,,---,0.01,VWS V14.01,2013-08-13 18:13:00,
2013-08-13 14:18:00,83.4,75.8,29.90,NE,43,0.0,0.0,78,0.00,,---,0.01,VWS V14.01,2013-08-13 18:18:00,
2013-08-13 14:20:00,83.5,75.9,29.90,NE,42,0.0,0.0,78,0.00,,---,0.01,VWS V14.01,2013-08-13 18:20:00,
2013-08-13 14:23:00,83.6,75.6,29.90,NE,42,0.0,0.0,77,0.00,,---,0.01,VWS V14.01,2013-08-13 18:23:00,
2013-08-13 14:28:00,83.7,76.5,29.90,NE,34,0.0,1.0,79,0.00,,---,0.01,VWS V14.01,2013-08-13 18:28:00,
2013-08-13 14:30:00,83.7,76.5,29.90,NE,34,0.0,1.0,79,0.00,,---,0.01,VWS V14.01,2013-08-13 18:30:00,
2013-08-13 14:33:00,83.5,75.9,29.90,NE,36,0.0,0.0,78,0.00,,---,0.01,VWS V14.01,2013-08-13 18:33:00,
2013-08-13 14:38:00,83.3,75.3,29.90,NE,36,0.0,0.0,77,0.00,,---,0.01,VWS V14.01,2013-08-13 18:38:00,
2013-08-13 14:40:00,83.3,75.3,29.90,NE,36,0.0,0.0,77,0.00,,---,0.01,VWS V14.01,2013-08-13 18:40:00,
2013-08-13 14:43:00,83.2,75.6,29.90,NE,36,0.0,0.0,78,0.00,,---,0.01,VWS V14.01,2013-08-13 18:43:00,
2013-08-13 14:48:00,83.0,74.7,29.89,NE,35,0.0,0.0,76,0.00,,---,0.01,VWS V14.01,2013-08-13 18:48:00,
2013-08-13 14:50:00,83.1,75.2,29.89,NE,36,0.0,0.0,77,0.00,,---,0.01,VWS V14.01,2013-08-13 18:50:00,
2013-08-13 14:53:00,83.2,75.2,29.89,NE,37,0.0,0.0,77,0.00,,---,0.01,VWS V14.01,2013-08-13 18:53:00,
2013-08-13 14:58:00,83.6,75.6,29.89,NE,37,0.0,0.0,77,0.00,,---,0.01,VWS V14.01,2013-08-13 18:58:00,
2013-08-13 15:00:00,83.6,75.2,29.89,NW,319,0.0,0.0,76,0.00,,---,0.01,VWS V14.01,2013-08-13 19:00:00,
2013-08-13 15:03:00,83.5,75.1,29.88,NW,319,0.0,0.0,76,0.00,,---,0.01,VWS V14.01,2013-08-13 19:03:00,
2013-08-13 15:08:00,83.6,75.2,29.88,NW,319,0.0,0.0,76,0.00,,---,0.01,VWS V14.01,2013-08-13 19:08:00,
2013-08-13 15:10:00,83.6,75.6,29.88,NW,319,0.0,0.0,77,0.00,,---,0.01,VWS V14.01,2013-08-13 19:10:00,
2013-08-13 15:13:00,83.7,75.7,29.88,North,354,0.0,0.0,77,0.00,,---,0.01,VWS V14.01,2013-08-13 19:13:00,
2013-08-13 15:18:00,84.0,75.6,29.87,North,6,0.0,0.0,76,0.00,,---,0.01,VWS V14.01,2013-08-13 19:18:00,
2013-08-13 15:20:00,84.2,74.6,29.87,North,8,0.0,0.0,73,0.00,,---,0.01,VWS V14.01,2013-08-13 19:20:00,
2013-08-13 15:23:00,84.6,76.2,29.87,North,11,0.0,0.0,76,0.00,,---,0.01,VWS V14.01,2013-08-13 19:23:00,
2013-08-13 15:28:00,85.2,75.2,29.87,ENE,70,0.0,0.0,72,0.00,,---,0.01,VWS V14.01,2013-08-13 19:28:00,
2013-08-13 15:30:00,85.4,74.9,29.87,ENE,70,0.0,0.0,71,0.00,,---,0.01,VWS V14.01,2013-08-13 19:30:00,
2013-08-13 15:33:00,85.5,74.6,29.87,ENE,70,0.0,0.0,70,0.00,,---,0.01,VWS V14.01,2013-08-13 19:33:00,
2013-08-13 15:38:00,85.6,74.7,29.87,ESE,113,0.0,0.0,70,0.00,,---,0.01,VWS V14.01,2013-08-13 19:38:00,
2013-08-13 15:40:00,85.7,74.8,29.86,ESE,111,0.0,0.0,70,0.00,,---,0.01,VWS V14.01,2013-08-13 19:40:00,
2013-08-13 15:42:00,85.7,75.2,29.86,ESE,111,0.0,0.0,71,0.00,,---,0.01,VWS V14.01,2013-08-13 19:42:00,
2013-08-13 15:47:00,85.6,74.7,29.86,ESE,108,0.0,1.0,70,0.00,,---,0.01,VWS V14.01,2013-08-13 19:47:00,
2013-08-13 15:50:00,85.5,75.0,29.86,ESE,109,0.0,1.0,71,0.00,,---,0.01,VWS V14.01,2013-08-13 19:50:00,
2013-08-13 15:52:00,85.5,75.4,29.86,ESE,103,0.0,0.0,72,0.00,,---,0.01,VWS V14.01,2013-08-13 19:52:00,
2013-08-13 15:57:00,85.4,75.8,29.86,East,82,0.0,0.0,73,0.00,,---,0.01,VWS V14.01,2013-08-13 19:57:00,
2013-08-13 16:00:00,85.2,75.6,29.86,East,82,0.0,0.0,73,0.00,,---,0.01,VWS V14.01,2013-08-13 20:00:00,
2013-08-13 16:02:00,85.0,75.8,29.85,East,82,0.0,0.0,74,0.00,,---,0.01,VWS V14.01,2013-08-13 20:02:00,
2013-08-13 16:07:00,84.8,76.0,29.85,East,82,0.0,0.0,75,0.00,,---,0.01,VWS V14.01,2013-08-13 20:07:00,
2013-08-13 16:10:00,84.7,75.9,29.85,East,81,0.0,0.0,75,0.00,,---,0.01,VWS V14.01,2013-08-13 20:10:00,
2013-08-13 16:12:00,84.7,75.9,29.85,NNE,32,0.0,1.0,75,0.00,,---,0.01,VWS V14.01,2013-08-13 20:12:00,
2013-08-13 16:17:00,84.6,75.8,29.84,NE,34,0.0,1.0,75,0.00,,---,0.01,VWS V14.01,2013-08-13 20:17:00,
2013-08-13 16:20:00,84.6,75.8,29.84,NE,41,0.0,1.0,75,0.00,,---,0.01,VWS V14.01,2013-08-13 20:20:00,
2013-08-13 16:22:00,84.5,75.3,29.84,NE,41,0.0,0.0,74,0.00,,---,0.01,VWS V14.01,2013-08-13 20:22:00,
2013-08-13 16:27:00,84.2,75.0,29.84,NE,41,0.0,0.0,74,0.00,,---,0.01,VWS V14.01,2013-08-13 20:27:00,
2013-08-13 16:30:00,84.1,75.3,29.84,NE,41,0.0,0.0,75,0.00,,---,0.01,VWS V14.01,2013-08-13 20:30:00,
2013-08-13 16:32:00,83.9,74.7,29.84,NE,41,0.0,0.0,74,0.00,,---,0.01,VWS V14.01,2013-08-13 20:32:00,
2013-08-13 16:37:00,83.9,75.1,29.84,NE,41,0.0,1.0,75,0.00,,---,0.01,VWS V14.01,2013-08-13 20:37:00,
2013-08-13 16:40:00,84.1,75.3,29.85,NE,41,0.0,1.0,75,0.00,,---,0.01,VWS V14.01,2013-08-13 20:40:00,
2013-08-13 16:42:00,84.2,75.4,29.85,NE,41,0.0,0.0,75,0.00,,---,0.01,VWS V14.01,2013-08-13 20:42:00,
2013-08-13 16:47:00,84.1,76.1,29.84,NE,41,0.0,0.0,77,0.00,,---,0.01,VWS V14.01,2013-08-13 20:47:00,
2013-08-13 16:50:00,84.0,75.6,29.84,NE,41,0.0,0.0,76,0.00,,---,0.01,VWS V14.01,2013-08-13 20:50:00,
2013-08-13 16:52:00,83.8,75.8,29.84,NE,41,0.0,0.0,77,0.00,,---,0.01,VWS V14.01,2013-08-13 20:52:00,
2013-08-13 16:57:00,83.6,75.6,29.84,NE,41,0.0,0.0,77,0.00,,---,0.01,VWS V14.01,2013-08-13 20:57:00,
2013-08-13 17:00:00,83.5,75.5,29.84,NE,41,0.0,0.0,77,0.00,,---,0.01,VWS V14.01,2013-08-13 21:00:00,
2013-08-13 17:02:00,83.5,75.5,29.84,NE,41,0.0,0.0,77,0.00,,---,0.01,VWS V14.01,2013-08-13 21:02:00,
2013-08-13 17:07:00,83.3,75.3,29.84,NE,41,0.0,0.0,77,0.00,,---,0.01,VWS V14.01,2013-08-13 21:07:00,
2013-08-13 17:10:00,83.2,75.6,29.84,NE,41,0.0,0.0,78,0.00,,---,0.01,VWS V14.01,2013-08-13 21:10:00,
2013-08-13 17:12:00,83.2,75.6,29.84,NE,41,0.0,0.0,78,0.00,,---,0.01,VWS V14.01,2013-08-13 21:12:00,
2013-08-13 17:17:00,83.0,75.4,29.84,NE,41,0.0,0.0,78,0.00,,---,0.01,VWS V14.01,2013-08-13 21:17:00,
2013-08-13 17:20:00,82.8,75.6,29.83,NE,41,0.0,0.0,79,0.00,,---,0.01,VWS V14.01,2013-08-13 21:20:00,
2013-08-13 17:22:00,82.7,75.5,29.83,NE,41,0.0,0.0,79,0.00,,---,0.01,VWS V14.01,2013-08-13 21:22:00,
2013-08-13 17:27:00,82.5,75.7,29.83,NE,41,0.0,0.0,80,0.00,,---,0.01,VWS V14.01,2013-08-13 21:27:00,
2013-08-13 17:30:00,82.6,76.2,29.84,NE,41,0.0,0.0,81,0.00,,---,0.01,VWS V14.01,2013-08-13 21:30:00,
2013-08-13 17:32:00,82.7,75.9,29.84,NE,41,0.0,0.0,80,0.00,,---,0.01,VWS V14.01,2013-08-13 21:32:00,
2013-08-13 17:37:00,82.5,75.3,29.84,NE,41,0.0,0.0,79,0.00,,---,0.01,VWS V14.01,2013-08-13 21:37:00,
2013-08-13 17:40:00,82.3,75.1,29.84,North,359,0.0,0.0,79,0.00,,---,0.01,VWS V14.01,2013-08-13 21:40:00,
2013-08-13 17:42:00,81.9,74.4,29.84,North,359,0.0,0.0,78,0.00,,---,0.01,VWS V14.01,2013-08-13 21:42:00,
2013-08-13 17:47:00,81.5,74.7,29.84,North,360,0.0,0.0,80,0.00,,---,0.01,VWS V14.01,2013-08-13 21:47:00,
2013-08-13 17:50:00,81.4,74.6,29.84,North,360,0.0,0.0,80,0.00,,---,0.01,VWS V14.01,2013-08-13 21:50:00,
2013-08-13 17:52:00,81.3,74.9,29.84,North,8,0.0,0.0,81,0.00,,---,0.01,VWS V14.01,2013-08-13 21:52:00,
2013-08-13 17:57:00,81.6,75.2,29.85,ENE,75,0.0,1.0,81,0.00,,---,0.01,VWS V14.01,2013-08-13 21:57:00,
2013-08-13 18:00:00,81.6,75.2,29.85,ENE,75,0.0,1.0,81,0.00,,---,0.01,VWS V14.01,2013-08-13 22:00:00,
2013-08-13 18:02:00,81.1,75.1,29.85,ENE,75,0.0,1.0,82,0.00,,---,0.01,VWS V14.01,2013-08-13 22:02:00,
2013-08-13 18:07:00,80.4,74.4,29.84,ENE,75,0.0,1.0,82,0.00,,---,0.01,VWS V14.01,2013-08-13 22:07:00,
2013-08-13 18:10:00,80.1,74.1,29.84,ENE,75,0.0,1.0,82,0.00,,---,0.01,VWS V14.01,2013-08-13 22:10:00,
2013-08-13 18:12:00,79.8,73.8,29.84,East,94,0.0,1.0,82,0.00,,---,0.01,VWS V14.01,2013-08-13 22:12:00,
2013-08-13 18:17:00,79.6,73.3,29.84,East,92,0.0,1.0,81,0.00,,---,0.01,VWS V14.01,2013-08-13 22:17:00,
2013-08-13 18:20:00,79.8,73.1,29.84,East,91,0.0,1.0,80,0.00,,---,0.01,VWS V14.01,2013-08-13 22:20:00,
2013-08-13 18:22:00,79.9,73.2,29.84,East,92,0.0,0.0,80,0.00,,---,0.01,VWS V14.01,2013-08-13 22:22:00,
2013-08-13 18:27:00,79.9,73.6,29.84,East,91,0.0,0.0,81,0.00,,---,0.01,VWS V14.01,2013-08-13 22:27:00,
2013-08-13 18:30:00,79.9,73.9,29.84,East,91,0.0,0.0,82,0.00,,---,0.01,VWS V14.01,2013-08-13 22:30:00,
2013-08-13 18:32:00,79.9,73.9,29.84,East,92,0.0,0.0,82,0.00,,---,0.01,VWS V14.01,2013-08-13 22:32:00,
2013-08-13 18:37:00,79.5,73.5,29.83,East,92,0.0,0.0,82,0.00,,---,0.01,VWS V14.01,2013-08-13 22:37:00,
2013-08-13 18:40:00,79.3,73.7,29.83,East,91,0.0,0.0,83,0.00,,---,0.01,VWS V14.01,2013-08-13 22:40:00,
2013-08-13 18:42:00,79.1,73.5,29.83,East,92,0.0,0.0,83,0.00,,---,0.01,VWS V14.01,2013-08-13 22:42:00,
2013-08-13 18:47:00,78.8,73.9,29.83,East,92,0.0,0.0,85,0.00,,---,0.01,VWS V14.01,2013-08-13 22:47:00,
2013-08-13 18:50:00,78.8,73.9,29.84,East,91,0.0,0.0,85,0.00,,---,0.01,VWS V14.01,2013-08-13 22:50:00,
2013-08-13 18:52:00,79.1,74.6,29.84,East,92,0.0,1.0,86,0.00,,---,0.01,VWS V14.01,2013-08-13 22:52:00,
2013-08-13 18:57:00,79.4,74.5,29.84,East,92,0.0,1.0,85,0.00,,---,0.01,VWS V14.01,2013-08-13 22:57:00,
2013-08-13 19:00:00,79.4,74.5,29.84,East,92,0.0,1.0,85,0.00,,---,0.01,VWS V14.01,2013-08-13 23:00:00,
2013-08-13 19:02:00,79.3,74.4,29.84,East,92,0.0,0.0,85,0.00,,---,0.01,VWS V14.01,2013-08-13 23:02:00,
2013-08-13 19:07:00,79.0,74.1,29.84,East,92,0.0,0.0,85,0.00,,---,0.01,VWS V14.01,2013-08-13 23:07:00,
2013-08-13 19:10:00,78.8,74.3,29.84,East,92,0.0,0.0,86,0.00,,---,0.01,VWS V14.01,2013-08-13 23:10:00,
2013-08-13 19:12:00,78.6,74.1,29.84,East,92,0.0,0.0,86,0.00,,---,0.01,VWS V14.01,2013-08-13 23:12:00,
2013-08-13 19:17:00,78.4,74.2,29.84,East,92,0.0,0.0,87,0.00,,---,0.01,VWS V14.01,2013-08-13 23:17:00,
2013-08-13 19:20:00,78.4,74.6,29.84,East,91,0.0,0.0,88,0.00,,---,0.01,VWS V14.01,2013-08-13 23:20:00,
2013-08-13 19:22:00,78.7,74.8,29.84,East,92,0.0,0.0,88,0.00,,---,0.01,VWS V14.01,2013-08-13 23:22:00,
2013-08-13 19:27:00,79.2,75.0,29.84,East,92,0.0,0.0,87,0.00,,---,0.01,VWS V14.01,2013-08-13 23:27:00,
2013-08-13 19:30:00,79.3,74.8,29.84,East,92,0.0,0.0,86,0.00,,---,0.01,VWS V14.01,2013-08-13 23:30:00,
2013-08-13 19:32:00,79.2,74.7,29.84,East,92,0.0,0.0,86,0.00,,---,0.01,VWS V14.01,2013-08-13 23:32:00,
2013-08-13 19:37:00,79.0,74.5,29.84,East,92,0.0,0.0,86,0.00,,---,0.01,VWS V14.01,2013-08-13 23:37:00,
2013-08-13 19:40:00,78.8,74.3,29.84,East,92,0.0,0.0,86,0.00,,---,0.01,VWS V14.01,2013-08-13 23:40:00,
2013-08-13 19:42:00,78.6,74.1,29.84,East,92,0.0,0.0,86,0.00,,---,0.01,VWS V14.01,2013-08-13 23:42:00,
2013-08-13 19:47:00,78.4,74.2,29.84,East,92,0.0,0.0,87,0.00,,---,0.01,VWS V14.01,2013-08-13 23:47:00,
2013-08-13 19:50:00,78.3,74.1,29.83,East,92,0.0,0.0,87,0.00,,---,0.01,VWS V14.01,2013-08-13 23:50:00,
2013-08-13 19:52:00,78.2,74.4,29.83,East,92,0.0,0.0,88,0.00,,---,0.01,VWS V14.01,2013-08-13 23:52:00,
2013-08-13 19:57:00,78.4,74.9,29.84,East,92,0.0,0.0,89,0.00,,---,0.01,VWS V14.01,2013-08-13 23:57:00,
2013-08-13 20:00:00,78.5,74.7,29.84,East,92,0.0,0.0,88,0.00,,---,0.01,VWS V14.01,2013-08-14 00:00:00,
2013-08-13 20:02:00,78.7,74.8,29.84,East,92,0.0,0.0,88,0.00,,---,0.01,VWS V14.01,2013-08-14 00:02:00,
2013-08-13 20:07:00,78.6,74.4,29.84,East,92,0.0,0.0,87,0.00,,---,0.01,VWS V14.01,2013-08-14 00:07:00,
2013-08-13 20:10:00,78.5,74.3,29.84,East,91,0.0,0.0,87,0.00,,---,0.01,VWS V14.01,2013-08-14 00:10:00,
2013-08-13 20:12:00,78.3,74.5,29.84,East,92,0.0,0.0,88,0.00,,---,0.01,VWS V14.01,2013-08-14 00:12:00,
2013-08-13 20:17:00,78.0,74.2,29.84,East,92,0.0,0.0,88,0.00,,---,0.01,VWS V14.01,2013-08-14 00:17:00,
2013-08-13 20:20:00,77.9,74.1,29.84,East,92,0.0,0.0,88,0.00,,---,0.01,VWS V14.01,2013-08-14 00:20:00,
2013-08-13 20:22:00,77.7,74.2,29.84,East,92,0.0,0.0,89,0.00,,---,0.01,VWS V14.01,2013-08-14 00:22:00,
2013-08-13 20:27:00,77.4,73.9,29.84,East,92,0.0,0.0,89,0.00,,---,0.01,VWS V14.01,2013-08-14 00:27:00,
2013-08-13 20:30:00,77.3,73.8,29.84,East,92,0.0,0.0,89,0.00,,---,0.01,VWS V14.01,2013-08-14 00:30:00,
2013-08-13 20:32:00,77.2,73.7,29.84,East,92,0.0,0.0,89,0.00,,---,0.01,VWS V14.01,2013-08-14 00:32:00,
2013-08-13 20:37:00,77.4,74.2,29.84,East,82,0.0,1.0,90,0.00,,---,0.01,VWS V14.01,2013-08-14 00:37:00,
2013-08-13 20:40:00,77.6,74.4,29.84,East,81,0.0,1.0,90,0.00,,---,0.01,VWS V14.01,2013-08-14 00:40:00,
2013-08-13 20:42:00,77.9,74.7,29.84,East,82,0.0,0.0,90,0.00,,---,0.01,VWS V14.01,2013-08-14 00:42:00,
2013-08-13 20:47:00,78.2,74.0,29.84,East,82,0.0,1.0,87,0.00,,---,0.01,VWS V14.01,2013-08-14 00:47:00,
2013-08-13 20:50:00,78.2,74.0,29.84,East,81,0.0,1.0,87,0.00,,---,0.01,VWS V14.01,2013-08-14 00:50:00,
2013-08-13 20:52:00,78.1,73.9,29.84,East,80,0.0,0.0,87,0.00,,---,0.01,VWS V14.01,2013-08-14 00:52:00,
2013-08-13 20:57:00,77.6,73.4,29.84,East,81,0.0,0.0,87,0.00,,---,0.01,VWS V14.01,2013-08-14 00:57:00,
2013-08-13 21:00:00,77.4,73.6,29.84,East,80,0.0,0.0,88,0.00,,---,0.01,VWS V14.01,2013-08-14 01:00:00,
2013-08-13 21:02:00,77.2,73.4,29.84,East,81,0.0,1.0,88,0.00,,---,0.01,VWS V14.01,2013-08-14 01:02:00,
2013-08-13 21:07:00,77.2,73.4,29.84,East,80,0.0,1.0,88,0.00,,---,0.01,VWS V14.01,2013-08-14 01:07:00,
2013-08-13 21:10:00,77.1,73.3,29.84,East,81,0.0,1.0,88,0.00,,---,0.01,VWS V14.01,2013-08-14 01:10:00,
2013-08-13 21:12:00,77.1,73.3,29.84,East,80,0.0,0.0,88,0.00,,---,0.01,VWS V14.01,2013-08-14 01:12:00,
2013-08-13 21:17:00,76.9,73.4,29.85,East,81,0.0,1.0,89,0.00,,---,0.01,VWS V14.01,2013-08-14 01:17:00,
2013-08-13 21:20:00,77.0,73.5,29.85,East,80,0.0,1.0,89,0.00,,---,0.01,VWS V14.01,2013-08-14 01:20:00,
2013-08-13 21:22:00,77.1,73.6,29.85,East,81,0.0,0.0,89,0.00,,---,0.01,VWS V14.01,2013-08-14 01:22:00,
2013-08-13 21:27:00,77.2,73.4,29.85,East,80,0.0,1.0,88,0.00,,---,0.01,VWS V14.01,2013-08-14 01:27:00,
2013-08-13 21:30:00,77.2,73.4,29.86,East,80,0.0,1.0,88,0.00,,---,0.01,VWS V14.01,2013-08-14 01:30:00,
2013-08-13 21:32:00,77.2,73.4,29.86,East,80,0.0,1.0,88,0.00,,---,0.01,VWS V14.01,2013-08-14 01:32:00,
2013-08-13 21:37:00,77.0,73.2,29.86,East,81,0.0,1.0,88,0.00,,---,0.01,VWS V14.01,2013-08-14 01:37:00,
2013-08-13 21:40:00,76.9,73.1,29.86,East,80,0.0,1.0,88,0.00,,---,0.01,VWS V14.01,2013-08-14 01:40:00,
2013-08-13 21:42:00,76.9,73.1,29.86,East,81,0.0,0.0,88,0.00,,---,0.01,VWS V14.01,2013-08-14 01:42:00,
2013-08-13 21:47:00,76.6,72.8,29.86,East,80,0.0,0.0,88,0.00,,---,0.01,VWS V14.01,2013-08-14 01:47:00,
2013-08-13 21:50:00,76.4,72.9,29.86,East,80,0.0,0.0,89,0.00,,---,0.01,VWS V14.01,2013-08-14 01:50:00,
2013-08-13 21:52:00,76.2,72.7,29.86,East,81,0.0,0.0,89,0.00,,---,0.01,VWS V14.01,2013-08-14 01:52:00,
2013-08-13 21:57:00,76.0,73.2,29.86,East,80,0.0,0.0,91,0.00,,---,0.01,VWS V14.01,2013-08-14 01:57:00,
2013-08-13 22:00:00,76.0,72.9,29.86,East,80,0.0,0.0,90,0.00,,---,0.01,VWS V14.01,2013-08-14 02:00:00,
2013-08-13 22:02:00,75.9,72.8,29.87,East,80,0.0,0.0,90,0.00,,---,0.01,VWS V14.01,2013-08-14 02:02:00,
2013-08-13 22:07:00,75.9,73.1,29.87,East,81,0.0,0.0,91,0.00,,---,0.01,VWS V14.01,2013-08-14 02:07:00,
2013-08-13 22:10:00,75.9,73.1,29.87,East,80,0.0,0.0,91,0.00,,---,0.01,VWS V14.01,2013-08-14 02:10:00,
2013-08-13 22:12:00,75.9,73.1,29.87,East,81,0.0,0.0,91,0.00,,---,0.01,VWS V14.01,2013-08-14 02:12:00,
2013-08-13 22:17:00,75.7,72.9,29.86,East,81,0.0,0.0,91,0.00,,---,0.01,VWS V14.01,2013-08-14 02:17:00,
2013-08-13 22:20:00,75.5,72.7,29.86,East,80,0.0,0.0,91,0.00,,---,0.01,VWS V14.01,2013-08-14 02:20:00,
2013-08-13 22:22:00,75.4,72.6,29.86,East,81,0.0,0.0,91,0.00,,---,0.01,VWS V14.01,2013-08-14 02:22:00,
2013-08-13 22:27:00,75.3,72.8,29.87,East,81,0.0,0.0,92,0.00,,---,0.01,VWS V14.01,2013-08-14 02:27:00,
2013-08-13 22:30:00,75.3,72.8,29.87,East,80,0.0,0.0,92,0.00,,---,0.01,VWS V14.01,2013-08-14 02:30:00,
2013-08-13 22:32:00,75.5,73.0,29.87,East,80,0.0,0.0,92,0.00,,---,0.01,VWS V14.01,2013-08-14 02:32:00,
2013-08-13 22:37:00,75.6,72.8,29.87,East,80,0.0,0.0,91,0.00,,---,0.01,VWS V14.01,2013-08-14 02:37:00,
2013-08-13 22:40:00,75.5,72.7,29.87,East,80,0.0,0.0,91,0.00,,---,0.01,VWS V14.01,2013-08-14 02:40:00,
2013-08-13 22:42:00,75.4,72.6,29.87,East,80,0.0,0.0,91,0.00,,---,0.01,VWS V14.01,2013-08-14 02:42:00,
2013-08-13 22:47:00,75.2,72.4,29.87,East,80,0.0,0.0,91,0.00,,---,0.01,VWS V14.01,2013-08-14 02:47:00,
2013-08-13 22:50:00,75.1,72.6,29.87,East,81,0.0,0.0,92,0.00,,---,0.01,VWS V14.01,2013-08-14 02:50:00,
2013-08-13 22:52:00,75.0,72.5,29.87,East,80,0.0,0.0,92,0.00,,---,0.01,VWS V14.01,2013-08-14 02:52:00,
2013-08-13 22:57:00,74.8,72.3,29.87,East,80,0.0,0.0,92,0.00,,---,0.01,VWS V14.01,2013-08-14 02:57:00,
2013-08-13 23:00:00,74.8,72.3,29.86,East,80,0.0,0.0,92,0.00,,---,0.01,VWS V14.01,2013-08-14 03:00:00,
2013-08-13 23:02:00,74.6,72.1,29.87,East,81,0.0,0.0,92,0.00,,---,0.01,VWS V14.01,2013-08-14 03:02:00,
2013-08-13 23:07:00,74.5,72.3,29.86,East,81,0.0,0.0,93,0.00,,---,0.01,VWS V14.01,2013-08-14 03:07:00,
2013-08-13 23:10:00,74.4,72.2,29.86,East,81,0.0,0.0,93,0.00,,---,0.01,VWS V14.01,2013-08-14 03:10:00,
2013-08-13 23:12:00,74.4,72.2,29.86,East,81,0.0,0.0,93,0.00,,---,0.01,VWS V14.01,2013-08-14 03:12:00,
2013-08-13 23:17:00,74.4,72.6,29.86,East,81,0.0,0.0,94,0.00,,---,0.01,VWS V14.01,2013-08-14 03:17:00,
2013-08-13 23:20:00,74.5,72.7,29.86,East,80,0.0,0.0,94,0.00,,---,0.01,VWS V14.01,2013-08-14 03:20:00,
2013-08-13 23:22:00,74.6,72.8,29.86,East,81,0.0,0.0,94,0.00,,---,0.01,VWS V14.01,2013-08-14 03:22:00,
2013-08-13 23:27:00,75.2,73.0,29.86,East,81,0.0,0.0,93,0.00,,---,0.01,VWS V14.01,2013-08-14 03:27:00,
2013-08-13 23:30:00,75.2,72.7,29.87,East,81,0.0,0.0,92,0.00,,---,0.01,VWS V14.01,2013-08-14 03:30:00,
2013-08-13 23:32:00,75.1,72.6,29.86,East,81,0.0,0.0,92,0.00,,---,0.01,VWS V14.01,2013-08-14 03:32:00,
2013-08-13 23:37:00,74.9,72.4,29.87,East,80,0.0,0.0,92,0.00,,---,0.01,VWS V14.01,2013-08-14 03:37:00,
2013-08-13 23:40:00,74.8,72.3,29.87,East,81,0.0,0.0,92,0.00,,---,0.01,VWS V14.01,2013-08-14 03:40:00,
2013-08-13 23:42:00,74.7,72.2,29.87,East,81,0.0,0.0,92,0.00,,---,0.01,VWS V14.01,2013-08-14 03:42:00,
2013-08-13 23:47:00,74.5,72.3,29.87,East,80,0.0,0.0,93,0.00,,---,0.01,VWS V14.01,2013-08-14 03:47:00,
2013-08-13 23:50:00,74.4,72.2,29.86,East,80,0.0,0.0,93,0.00,,---,0.01,VWS V14.01,2013-08-14 03:50:00,
2013-08-13 23:52:00,74.3,72.2,29.86,East,80,0.0,0.0,93,0.00,,---,0.01,VWS V14.01,2013-08-14 03:52:00,
2013-08-13 23:57:00,74.2,72.1,29.86,East,81,0.0,0.0,93,0.00,,---,0.01,VWS V14.01,2013-08-14 03:57:00,